createdAt,value
2019-04-19T03:19:39.926Z,68.00
2019-04-19T03:22:46.908Z,69.60
2019-04-19T03:25:45.213Z,69.40
2019-04-19T03:28:44.622Z,69.10
2019-04-19T03:32:09.869Z,69.20
2019-04-19T03:35:12.647Z,70.10
2019-04-19T03:38:10.546Z,70.20
2019-04-19T03:41:27.324Z,70.50
2019-04-19T03:44:25.711Z,70.50
2019-04-19T03:47:41.278Z,70.70
2019-04-19T03:50:32.464Z,71.20
2019-04-19T03:53:51.034Z,71.10
2019-04-19T03:56:43.792Z,71.60
2019-04-19T03:59:33.570Z,71.30
2019-04-19T04:02:41.732Z,71.20
2019-04-19T04:05:45.988Z,71.50
2019-04-19T04:08:58.475Z,70.90
2019-04-19T04:12:32.465Z,70.40
2019-04-19T04:16:01.069Z,69.90
2019-04-19T04:18:47.527Z,71.20
2019-04-19T04:21:53.732Z,75.10
2019-04-19T04:25:04.223Z,76.70
2019-04-19T04:28:09.009Z,77.10
2019-04-19T04:31:17.156Z,79.20
2019-04-19T04:34:31.171Z,76.80
2019-04-19T04:37:30.501Z,82.60
2019-04-19T04:40:21.398Z,86.60
2019-04-19T04:43:35.710Z,86.80
2019-04-19T04:47:03.266Z,88.20
2019-04-19T04:50:24.131Z,90.00
2019-04-19T04:53:27.866Z,90.40
2019-04-19T04:56:49.854Z,91.30
2019-04-19T04:59:47.440Z,92.30
2019-04-19T05:03:07.909Z,93.10
2019-04-19T05:06:13.722Z,94.30
2019-04-19T05:09:18.700Z,95.10
2019-04-19T05:12:29.122Z,95.80
2019-04-19T05:15:27.522Z,96.90
2019-04-19T05:24:51.477Z,72.80
2019-04-19T05:27:45.562Z,73.00
2019-04-19T05:30:41.193Z,73.50
2019-04-19T05:33:47.473Z,73.70
2019-04-19T05:36:58.293Z,73.90
2019-04-19T05:40:16.690Z,73.50
2019-04-19T05:43:46.364Z,73.70
2019-04-19T05:46:33.230Z,74.30
2019-04-19T05:49:28.051Z,74.40
2019-04-19T05:52:34.579Z,74.40
2019-04-19T05:55:22.270Z,74.90
2019-04-19T05:58:42.267Z,74.90
2019-04-19T06:01:51.653Z,75.00
2019-04-19T06:05:01.339Z,75.60
2019-04-19T06:07:53.806Z,77.00
2019-04-19T06:10:52.940Z,77.20
2019-04-19T06:14:12.517Z,77.50
2019-04-19T06:17:34.679Z,78.40
2019-04-19T06:20:39.452Z,78.30
2019-04-19T06:23:48.185Z,79.20
2019-04-19T06:30:00.199Z,80.20
2019-04-19T06:33:02.312Z,80.50
2019-04-19T06:35:51.963Z,80.70
2019-04-19T06:38:50.768Z,80.70
2019-04-19T06:42:00.502Z,80.90
2019-04-19T06:45:18.305Z,81.00
2019-04-19T06:48:11.446Z,81.70
2019-04-19T06:51:20.453Z,81.90
2019-04-19T06:54:15.930Z,82.10
2019-04-19T06:57:28.399Z,82.20
2019-04-19T07:00:40.213Z,82.30
2019-04-19T07:03:30.045Z,83.30
2019-04-19T07:06:48.279Z,83.30
2019-04-19T07:10:04.030Z,83.60
2019-04-19T07:13:00.701Z,84.20
2019-04-19T07:16:13.103Z,82.60
2019-04-19T07:19:13.425Z,83.50
2019-04-19T07:22:12.050Z,83.20
2019-04-19T07:25:31.773Z,82.70
2019-04-19T07:28:16.622Z,82.50
2019-04-19T07:31:15.120Z,81.70
2019-04-19T07:34:38.414Z,81.80
2019-04-19T07:37:41.831Z,80.10
2019-04-19T07:40:51.499Z,81.90
2019-04-19T07:44:19.978Z,80.40
2019-04-19T07:47:29.455Z,80.60
2019-04-19T07:50:27.979Z,80.80
2019-04-19T07:53:36.901Z,81.60
2019-04-19T07:56:47.160Z,82.00
2019-04-19T08:00:02.791Z,82.60
2019-04-19T08:03:10.539Z,81.50
2019-04-19T08:09:18.920Z,83.80
2019-04-19T08:12:27.728Z,82.00
2019-04-19T08:27:33.838Z,79.80
2019-04-19T08:30:37.970Z,74.10
2019-04-19T08:33:36.031Z,71.30
2019-04-19T08:36:46.174Z,76.00
2019-04-19T08:39:58.154Z,76.40
2019-04-19T08:43:07.314Z,72.30
2019-04-19T08:46:13.580Z,71.70
2019-04-19T08:49:33.712Z,72.30
2019-04-19T08:52:36.984Z,68.50
2019-04-19T08:55:57.925Z,69.70
2019-04-19T08:59:00.531Z,71.00
2019-04-19T09:02:06.676Z,68.70
2019-04-19T09:05:09.088Z,67.20
2019-04-19T09:08:18.355Z,66.10
2019-04-19T09:11:22.541Z,66.90
2019-04-19T09:14:30.305Z,66.20
2019-04-19T09:17:45.266Z,66.60
2019-04-19T09:20:41.353Z,66.20
2019-04-19T09:23:39.268Z,67.50
2019-04-19T09:26:53.060Z,65.50
2019-04-19T09:29:58.911Z,66.40
2019-04-19T09:32:46.813Z,65.00
2019-04-19T09:35:59.099Z,66.90
2019-04-19T09:39:08.602Z,67.90
2019-04-19T09:42:12.841Z,68.50
2019-04-19T09:45:07.095Z,68.80
2019-04-19T09:48:31.622Z,66.10
2019-04-19T09:51:35.228Z,64.40
2019-04-19T09:54:48.716Z,63.20
2019-04-19T09:57:48.223Z,63.50
2019-04-19T10:00:32.378Z,63.90
2019-04-19T10:03:45.186Z,64.10
2019-04-19T10:06:42.728Z,66.20
2019-04-19T10:09:47.113Z,63.90
2019-04-19T10:12:51.803Z,63.30
2019-04-19T10:15:58.816Z,63.30
2019-04-19T10:19:06.155Z,62.50
2019-04-19T10:22:16.462Z,64.20
2019-04-19T10:25:23.268Z,62.70
2019-04-19T10:28:26.981Z,59.90
2019-04-19T10:31:43.234Z,61.60
2019-04-19T10:34:46.437Z,61.40
2019-04-19T10:37:49.385Z,62.00
2019-04-19T10:40:53.493Z,59.30
2019-04-19T10:44:07.273Z,57.10
2019-04-19T10:47:04.907Z,59.10
2019-04-19T10:50:20.633Z,59.90
2019-04-19T10:53:14.523Z,60.40
2019-04-19T10:56:29.868Z,51.90
2019-04-19T10:59:34.390Z,55.40
2019-04-19T11:02:38.451Z,55.60
2019-04-19T11:05:44.964Z,56.70
2019-04-19T11:08:49.201Z,56.30
2019-04-19T11:11:52.324Z,53.80
2019-04-19T11:14:55.746Z,53.70
2019-04-19T11:17:59.298Z,53.30
2019-04-19T11:21:02.586Z,53.80
2019-04-19T11:24:05.559Z,55.60
2019-04-19T11:27:08.948Z,54.20
2019-04-19T11:30:39.159Z,50.70
2019-04-19T11:33:43.340Z,53.70
2019-04-19T11:36:47.472Z,52.10
2019-04-19T11:39:50.973Z,50.10
2019-04-19T11:42:55.302Z,50.50
2019-04-19T11:45:59.927Z,48.50
2019-04-19T11:49:03.871Z,51.50
2019-04-19T11:52:11.209Z,53.20
2019-04-19T11:55:14.714Z,50.50
2019-04-19T11:58:18.050Z,49.30
2019-04-19T12:01:25.977Z,51.60
2019-04-19T12:04:30.172Z,48.40
2019-04-19T12:07:33.164Z,50.20
2019-04-19T12:10:37.079Z,48.30
2019-04-19T12:13:41.163Z,48.70
2019-04-19T12:16:44.770Z,47.60
2019-04-19T12:19:52.927Z,49.40
2019-04-19T12:22:53.718Z,47.60
2019-04-19T12:25:57.571Z,47.90
2019-04-19T12:29:03.764Z,45.60
2019-04-19T12:32:05.519Z,45.60
2019-04-19T12:35:08.814Z,48.10
2019-04-19T12:38:12.364Z,47.00
2019-04-19T12:41:16.283Z,45.30
2019-04-19T12:44:20.856Z,45.80
2019-04-19T12:47:24.767Z,41.90
2019-04-19T12:50:27.879Z,40.30
2019-04-19T12:53:30.987Z,40.00
2019-04-19T12:56:34.286Z,40.20
2019-04-19T12:59:38.054Z,42.60
2019-04-19T13:03:03.636Z,40.50
2019-04-19T13:06:09.239Z,40.20
2019-04-19T13:09:13.005Z,41.00
2019-04-19T13:12:16.999Z,38.50
2019-04-19T13:15:20.217Z,40.70
2019-04-19T13:18:24.383Z,39.20
2019-04-19T13:21:28.235Z,41.10
2019-04-19T13:24:32.182Z,38.60
2019-04-19T13:27:44.136Z,37.20
2019-04-19T13:30:48.061Z,37.80
2019-04-19T13:33:46.703Z,36.10
2019-04-19T13:37:15.428Z,37.30
2019-04-19T13:40:26.197Z,37.00
2019-04-19T13:43:29.313Z,38.80
2019-04-19T13:46:32.854Z,38.20
2019-04-19T13:49:37.327Z,36.80
2019-04-19T13:52:42.250Z,37.10
2019-04-19T13:55:46.584Z,33.90
2019-04-19T13:58:49.818Z,33.80
2019-04-19T14:01:53.033Z,36.40
2019-04-19T14:04:56.026Z,36.70
2019-04-19T14:07:59.270Z,36.80
2019-04-19T14:11:03.376Z,35.30
2019-04-19T14:14:07.705Z,33.80
2019-04-19T14:17:11.814Z,36.00
2019-04-19T14:20:27.540Z,37.00
2019-04-19T14:23:21.586Z,34.70
2019-04-19T14:26:34.623Z,34.80
2019-04-19T14:29:29.877Z,32.70
2019-04-19T14:32:33.135Z,36.60
2019-04-19T14:35:37.721Z,36.20
2019-04-19T14:38:41.389Z,37.40
2019-04-19T14:41:45.515Z,36.30
2019-04-19T14:44:50.007Z,39.60
2019-04-19T14:47:53.443Z,39.20
2019-04-19T14:51:03.152Z,39.50
2019-04-19T14:54:02.670Z,36.30
2019-04-19T14:57:07.227Z,37.00
2019-04-19T15:00:16.804Z,38.00
2019-04-19T15:03:23.510Z,39.10
2019-04-19T15:06:26.434Z,39.30
2019-04-19T15:09:29.923Z,39.50
2019-04-19T15:12:36.557Z,41.60
2019-04-19T15:15:39.839Z,41.90
2019-04-19T15:18:45.255Z,41.20
2019-04-19T15:21:50.079Z,41.90
2019-04-19T15:24:53.085Z,40.60
2019-04-19T15:27:57.038Z,40.80
2019-04-19T15:31:02.481Z,40.60
2019-04-19T15:34:06.192Z,41.80
2019-04-19T15:37:09.620Z,42.40
2019-04-19T15:40:18.319Z,40.60
2019-04-19T15:43:21.524Z,40.00
2019-04-19T15:46:25.913Z,41.00
2019-04-19T15:49:29.980Z,40.90
2019-04-19T15:52:33.972Z,41.70
2019-04-19T15:55:37.878Z,42.30
2019-04-19T15:58:40.869Z,41.20
2019-04-19T16:02:02.182Z,41.40
2019-04-19T16:05:26.165Z,41.50
2019-04-19T16:08:52.759Z,41.90
2019-04-19T16:12:00.635Z,42.00
2019-04-19T16:15:06.200Z,42.60
2019-04-19T16:18:10.429Z,42.30
2019-04-19T16:21:23.557Z,42.70
2019-04-19T16:24:19.308Z,42.00
2019-04-19T16:27:23.147Z,44.10
2019-04-19T16:30:26.596Z,43.20
2019-04-19T16:33:29.864Z,42.80
2019-04-19T16:36:33.309Z,42.90
2019-04-19T16:39:37.511Z,41.90
2019-04-19T16:42:41.088Z,41.30
2019-04-19T16:45:46.242Z,42.50
2019-04-19T16:48:50.722Z,42.80
2019-04-19T16:51:57.546Z,43.20
2019-04-19T16:55:00.571Z,41.90
2019-04-19T16:58:04.598Z,43.30
2019-04-19T17:01:07.555Z,42.10
2019-04-19T17:04:11.346Z,42.30
2019-04-19T17:07:14.548Z,42.60
2019-04-19T17:10:18.809Z,44.00
2019-04-19T17:13:22.721Z,43.50
2019-04-19T17:16:46.405Z,44.60
2019-04-19T17:20:12.791Z,43.10
2019-04-19T17:23:16.968Z,44.00
2019-04-19T17:26:20.271Z,44.20
2019-04-19T17:29:24.770Z,44.30
2019-04-19T17:32:28.209Z,44.10
2019-04-19T17:35:32.195Z,43.60
2019-04-19T17:38:58.289Z,45.20
2019-04-19T17:42:01.068Z,44.20
2019-04-19T17:45:07.298Z,43.80
2019-04-19T17:48:10.505Z,45.60
2019-04-19T17:51:15.702Z,45.70
2019-04-19T17:54:39.157Z,45.70
2019-04-19T17:57:25.016Z,46.50
2019-04-19T18:00:28.359Z,47.90
2019-04-19T18:03:31.703Z,47.40
2019-04-19T18:06:34.642Z,46.60
2019-04-19T18:09:45.616Z,47.00
2019-04-19T18:12:43.336Z,48.10
2019-04-19T18:15:47.044Z,49.40
2019-04-19T18:18:52.664Z,48.40
2019-04-19T18:22:03.698Z,49.20
2019-04-19T18:25:03.626Z,49.10
2019-04-19T18:28:09.415Z,49.80
2019-04-19T18:31:12.750Z,50.80
2019-04-19T18:34:37.768Z,51.10
2019-04-19T18:37:43.998Z,51.00
2019-04-19T18:40:47.080Z,50.50
2019-04-19T18:44:03.104Z,50.70
2019-04-19T18:46:56.450Z,50.80
2019-04-19T18:49:59.947Z,51.10
2019-04-19T18:53:15.287Z,51.40
2019-04-19T18:56:12.385Z,51.20
2019-04-19T18:59:19.187Z,50.90
2019-04-19T19:02:21.401Z,51.10
2019-04-19T19:05:23.789Z,51.40
2019-04-19T19:08:29.801Z,52.20
2019-04-19T19:11:32.730Z,51.50
2019-04-19T19:14:37.342Z,51.70
2019-04-19T19:17:43.814Z,52.00
2019-04-19T19:20:50.811Z,51.90
2019-04-19T19:24:15.214Z,52.60
2019-04-19T19:27:05.009Z,53.60
2019-04-19T19:30:02.217Z,53.70
2019-04-19T19:33:13.169Z,53.60
2019-04-19T19:36:19.580Z,52.80
2019-04-19T19:39:27.390Z,53.80
2019-04-19T19:42:54.726Z,53.60
2019-04-19T19:45:50.787Z,53.40
2019-04-19T19:49:18.861Z,53.60
2019-04-19T19:51:54.741Z,53.30
2019-04-19T19:55:08.831Z,53.10
2019-04-19T19:58:00.726Z,54.30
2019-04-19T20:01:11.856Z,53.60
2019-04-19T20:04:04.722Z,54.00
2019-04-19T20:07:12.738Z,54.20
2019-04-19T20:10:15.826Z,53.80
2019-04-19T20:13:21.249Z,54.10
2019-04-19T20:16:26.876Z,53.60
2019-04-19T20:19:28.448Z,53.50
2019-04-19T20:22:36.522Z,53.20
2019-04-19T20:25:46.386Z,53.60
2019-04-19T20:28:43.265Z,54.40
2019-04-19T20:31:46.216Z,54.00
2019-04-19T20:34:49.967Z,54.10
2019-04-19T20:37:58.567Z,54.60
2019-04-19T20:41:02.447Z,55.10
2019-04-19T20:44:24.441Z,54.90
2019-04-19T20:47:10.384Z,55.20
2019-04-19T20:50:23.454Z,56.00
2019-04-19T20:53:35.710Z,55.90
2019-04-19T20:57:04.669Z,56.00
2019-04-19T20:59:53.653Z,56.80
2019-04-19T21:02:52.523Z,57.10
2019-04-19T21:05:56.304Z,57.80
2019-04-19T21:09:01.323Z,57.10
2019-04-19T21:12:09.504Z,56.90
2019-04-19T21:15:21.868Z,56.80
2019-04-19T21:18:22.123Z,57.00
2019-04-19T21:21:22.680Z,57.30
2019-04-19T21:24:26.749Z,57.70
2019-04-19T21:27:33.301Z,56.90
2019-04-19T21:30:34.826Z,57.00
2019-04-19T21:33:45.076Z,56.90
2019-04-19T21:36:52.822Z,57.30
2019-04-19T21:39:51.870Z,57.30
2019-04-19T21:42:58.050Z,57.30
2019-04-19T21:45:59.633Z,57.30
2019-04-19T21:49:11.092Z,56.90
2019-04-19T21:52:13.783Z,57.20
2019-04-19T21:55:25.310Z,57.60
2019-04-19T21:58:21.154Z,58.00
2019-04-19T22:01:25.450Z,58.30
2019-04-19T22:04:29.559Z,58.20
2019-04-19T22:07:40.186Z,58.20
2019-04-19T22:10:42.154Z,58.10
2019-04-19T22:13:45.604Z,58.50
2019-04-19T22:16:48.615Z,58.80
2019-04-19T22:19:51.654Z,58.90
2019-04-19T22:23:01.214Z,58.60
2019-04-19T22:26:13.204Z,58.90
2019-04-19T22:29:04.302Z,58.90
2019-04-19T22:32:13.422Z,59.20
2019-04-19T22:35:18.401Z,58.80
2019-04-19T22:38:22.141Z,59.80
2019-04-19T22:41:25.653Z,60.30
2019-04-19T22:44:28.469Z,61.20
2019-04-19T22:47:33.546Z,60.60
2019-04-19T22:50:39.180Z,60.90
2019-04-19T22:53:44.204Z,60.70
2019-04-19T22:56:58.605Z,59.90
2019-04-19T22:59:56.484Z,59.60
2019-04-19T23:03:04.994Z,59.60
2019-04-19T23:06:13.576Z,60.20
2019-04-19T23:09:17.661Z,62.10
2019-04-19T23:12:18.575Z,62.50
2019-04-19T23:15:27.032Z,61.20
2019-04-19T23:18:28.951Z,60.00
2019-04-19T23:21:33.041Z,60.30
2019-04-19T23:24:43.741Z,61.70
2019-04-19T23:27:48.712Z,62.50
2019-04-19T23:30:47.395Z,62.10
2019-04-19T23:33:58.674Z,61.90
2019-04-19T23:36:59.909Z,61.80
2019-04-19T23:40:01.259Z,60.50
2019-04-19T23:43:06.016Z,61.00
2019-04-19T23:46:18.685Z,60.20
2019-04-19T23:49:17.552Z,61.70
2019-04-19T23:52:21.189Z,62.20
2019-04-19T23:55:24.527Z,62.40
2019-04-19T23:58:33.731Z,61.40
